| Record Date MM/DD/YYYY | Record Julian Date NNN day of the year | Air Temperature Max (Degrees Fahrenheit F) | Time Max Air Temperature HH:MM:SS This is the time of max air temperature standard time. | Air Temperature Min (Degrees Fahrenheit F) | Time Min Air Temperature HH:MM:SS This is the time of min air temperature standard time. | Air Temperature Observed (Degrees Fahrenheit F) This is an instantaneous reading for air temperature at 7:00:00 standard time. | Relative Humidity Max (Percent) | Time Max Relative Humidity HH:MM:SS This is the time of max relative humidity standard time. | Relative Humidity Min (Percent) | Time Min Relative Humidity HH:MM:SS This is the time of min relative humidity standard time. | Relative Humidity Observed (Percent) This is an instantaneous reading at 7:00:00 standard time. | Precipitation (Inches n.nn) total rain fall that occurred for the day. | Pan Evaporation (Inches n.nn) total evaporation that occured for the day. | Wind Run (Miles) Wind travel for the day. | Wind Speed (Miles Per Hour) Resultant / Average speed for the day. | Wind Direction (Degrees) Resultant Direction for the day | Solar Radiation (Langley's) that occurred for the day. | Soil Temperature Max at 2 inch depth (Degrees Fahrenheit F) that occurred during the day. | Time Max Soil temperature at 2 inches HH:MM:SS This is the time of max 2 inch soil temperature standard time. | Soil Temperature Min at 2 inch depth (Degrees Fahrenheit F) that occurred during the day. | Time Min Soil temperature at 2 inches HH:MM:SS This is the time of min 2 inch soil temperature standard time. | Soil Temperature Observed at 2 inch depth (Degrees Fahrenheit F) This is an instantaneous reading 2 inch soil temperature at 7:00:00 standard time. | Soil Temperature Max at 4 inch depth (Degrees Fahrenheit F) that occurred during the day. | Time Max Soil temperature at 4 inches HH:MM:SS This is the time of max 4 inch soil temperature standard time. | Soil Temperature Min at 4 inch depth (Degrees Fahrenheit F) that occurred during the day. | Time Min Soil temperature at 4 inches HH:MM:SS This is the time of min 4 inch soil temperature standard time. | Soil Temperature Observed at 4 inch depth (Degrees Fahrenheit F) This is an instantaneous reading 4 inch soil temperature at 7:00:00 standard time. | DD50 Degree Days 50 Fahrenheit. | Adjusted DD50 Degree Days 50 Fahrenheit adjusted for latitude. | DD60 Degree Days 60 Fahrenheit. |
|---|---|---|---|---|---|---|---|---|---|---|---|---|---|---|---|---|---|---|---|---|---|---|---|---|---|---|---|---|---|---|
| 08/07/2026 | 219 | 98 | 14:05:00 | 72 | 5:19:00 | 78 | 89 | 4:03:05 | 48 | 13:59:01 | 88 | 0 | 35 | 27 | 25 | |||||||||||||||
| 08/08/2026 | 220 | 98 | 15:05:00 | 72 | 5:27:05 | 78 | 89 | 6:36:01 | 44 | 14:06:03 | 88 | 0 | 35 | 26.96 | 25 | |||||||||||||||
| 08/09/2026 | 221 | 99 | 13:54:02 | 73 | 4:25:00 | 79 | 88 | 3:48:03 | 45 | 13:25:04 | 88 | 0 | 36 | 26.93 | 26 | |||||||||||||||
| 08/10/2026 | 222 | 100 | 14:47:00 | 74 | 5:11:03 | 79 | 88 | 3:07:01 | 45 | 14:48:04 | 88 | 0 | 37 | 26.9 | 27 | |||||||||||||||
| 08/11/2026 | 223 | 98 | 14:34:02 | 74 | 4:50:00 | 80 | 88 | 0:25:02 | 49 | 14:35:00 | 87 | 0 | 36 | 26.86 | 26 | |||||||||||||||
| 08/12/2026 | 224 | 101 | 15:16:00 | 75 | 4:28:05 | 81 | 88 | 4:38:01 | 40 | 14:29:03 | 86 | 0 | 38 | 26.83 | 28 | |||||||||||||||
| 08/13/2026 | 225 | 103 | 14:48:03 | 75 | 4:51:01 | 82 | 87 | 5:29:02 | 39 | 15:29:00 | 84 | 0 | 39 | 26.79 | 29 | |||||||||||||||
| 08/14/2026 | 226 | 101 | 15:42:05 | 76 | 5:10:02 | 81 | 87 | 5:47:05 | 38 | 14:33:03 | 84 | 0 | 38.5 | 26.76 | 28.5 | |||||||||||||||
| 08/15/2026 | 227 | 102 | 15:07:00 | 72 | 4:58:04 | 77 | 87 | 5:28:02 | 39 | 15:04:00 | 84 | 0 | 37 | 26.72 | 27 | |||||||||||||||
| 08/16/2026 | 228 | 104 | 14:02:00 | 76 | 5:11:01 | 82 | 87 | 5:57:00 | 36 | 14:05:02 | 84 | 0 | 40 | 26.69 | 30 | |||||||||||||||
| 08/17/2026 | 229 | 104 | 15:11:03 | 76 | 0:00:00 | 85 | 86 | 23:59:04 | 37 | 12:33:00 | 74 | 0 | 40 | 26.65 | 30 | |||||||||||||||
| 08/18/2026 | 230 | 102 | 15:40:05 | 74 | 4:38:00 | 79 | 87 | 3:04:04 | 39 | 16:37:00 | 86 | 0 | 38 | 26.62 | 28 | |||||||||||||||
| 08/19/2026 | 231 | 105 | 14:26:00 | 76 | 5:05:01 | 82 | 87 | 5:19:05 | 37 | 14:27:00 | 83 | 0 | 40.5 | 26.58 | 30.5 | |||||||||||||||
| 08/20/2026 | 232 | 105 | 15:17:03 | 75 | 5:29:03 | 81 | 87 | 5:44:00 | 34 | 14:56:03 | 85 | 0 | 40 | 26.55 | 30 | |||||||||||||||
| 08/21/2026 | 233 | 101 | 14:42:05 | 71 | 23:59:02 | 76 | 85 | 23:54:01 | 42 | 14:43:03 | 82 | 0 | 36 | 26.51 | 26 | |||||||||||||||
| 08/22/2026 | 234 | 104 | 14:03:00 | 67 | 3:58:01 | 74 | 88 | 2:24:00 | 35 | 14:56:01 | 87 | 0 | 35.5 | 26.48 | 25.5 | |||||||||||||||
| 08/23/2026 | 235 | 99 | 15:06:01 | 70 | 5:24:04 | 75 | 87 | 0:01:04 | 43 | 15:11:05 | 86 | 0 | 34.5 | 26.44 | 24.5 | |||||||||||||||
| 08/24/2026 | 236 | 90 | 16:33:05 | 73 | 2:07:01 | 74 | 87 | 23:59:04 | 61 | 16:33:05 | 84 | 0 | 31.5 | 26.41 | 21.5 | |||||||||||||||
| 08/25/2026 | 237 | 96 | 15:42:05 | 74 | 4:35:03 | 78 | 87 | 0:23:05 | 51 | 15:24:04 | 86 | 0 | 35 | 26.37 | 25 | |||||||||||||||
| 08/26/2026 | 238 | 102 | 15:15:01 | 73 | 23:07:03 | 79 | 86 | 6:49:02 | 37 | 16:16:01 | 86 | 0 | 37.5 | 26.33 | 27.5 | |||||||||||||||
| 08/27/2026 | 239 | 95 | 14:19:05 | 72 | 4:03:01 | 74 | 86 | 9:00:04 | 53 | 16:42:00 | 80 | 0 | 33.5 | 26.3 | 23.5 | |||||||||||||||
| 08/28/2026 | 240 | 97 | 13:29:05 | 69 | 23:59:03 | 73 | 85 | 1:16:03 | 39 | 15:09:02 | 82 | 0 | 33 | 26.26 | 23 | |||||||||||||||
| 08/29/2026 | 241 | 98 | 14:23:03 | 64 | 5:58:02 | 70 | 86 | 1:45:03 | 29 | 13:53:05 | 84 | 0 | 31 | 26.23 | 21 | |||||||||||||||
| 08/30/2026 | 242 | 98 | 13:20:00 | 68 | 0:36:04 | 75 | 85 | 0:03:04 | 44 | 15:31:05 | 85 | 0 | 33 | 26.19 | 23 | |||||||||||||||
| 08/31/2026 | 243 | 101 | 16:08:02 | 71 | 5:07:03 | 78 | 85 | 0:00:02 | 42 | 16:40:02 | 84 | 0 | 36 | 26.15 | 26 | |||||||||||||||
| 09/01/2026 | 244 | 104 | 14:44:02 | 73 | 5:38:04 | 78 | 84 | 0:10:04 | 38 | 14:47:04 | 84 | 0 | 38.5 | 26.12 | 28.5 | |||||||||||||||
| 09/02/2026 | 245 | 102 | 16:22:05 | 73 | 5:31:00 | 79 | 84 | 0:59:01 | 39 | 16:34:03 | 84 | 0 | 37.5 | 26.08 | 27.5 | |||||||||||||||
| 09/03/2026 | 246 | 102 | 13:43:02 | 75 | 5:31:01 | 79 | 84 | 7:03:02 | 41 | 16:24:01 | 84 | 0 | 38.5 | 26.05 | 28.5 | |||||||||||||||
| 09/04/2026 | 247 | 106 | 14:26:00 | 76 | 2:13:01 | 78 | 84 | 7:35:04 | 37 | 14:26:04 | 83 | 0 | 41 | 26.01 | 31 | |||||||||||||||
| Average | 100.52 | 72.72 | 78.07 | 86.48 | 41.41 | 84.48 | 0 | 0 | 0 | 0 | 0 | 0 | 0 | 0 | 0 | 36.62 | 26.51 | 26.62 | ||||||||||||
| Total | 0 | 1062 | 768.77 | 772 |